Time;durP1;ratioP1;P1;durP2;ratioP2;P2;SDS_P1;SDS_P2;PMS_P1;PMS_P2;Temp;Humidity;BMP_temperature;BMP_pressure;BME280_temperature;BME280_humidity;BME280_pressure;Samples;Min_cycle;Max_cycle;Signal;HPM_P1;HPM_P2
2022/10/14 00:02:09;;;;;;;22.35;15.65;;;;;;;;;;5049265;28;20484;-88
2022/10/14 00:04:36;;;;;;;27.90;15.60;;;;;;;;;;5033883;28;20088;-88
2022/10/14 00:07:03;;;;;;;23.45;16.02;;;;;;;;;;5049480;28;20049;-88
2022/10/14 00:09:30;;;;;;;26.92;16.13;;;;;;;;;;5049409;28;20045;-89
2022/10/14 00:11:57;;;;;;;25.90;16.10;;;;;;;;;;5033860;28;20106;-88
2022/10/14 00:14:24;;;;;;;21.42;13.85;;;;;;;;;;5033770;28;20115;-88
2022/10/14 00:16:52;;;;;;;27.35;14.40;;;;;;;;;;5049172;28;20057;-88
2022/10/14 00:19:22;;;;;;;26.63;15.00;;;;;;;;;;5048979;28;20129;-88
2022/10/14 00:21:49;;;;;;;27.85;15.13;;;;;;;;;;5049423;28;20064;-88
2022/10/14 00:24:17;;;;;;;27.85;15.02;;;;;;;;;;5049097;28;20054;-88
2022/10/14 00:26:45;;;;;;;24.63;15.07;;;;;;;;;;5033434;28;20081;-88
2022/10/14 00:29:14;;;;;;;23.95;15.70;;;;;;;;;;5049158;28;20057;-88
2022/10/14 00:31:41;;;;;;;20.88;13.60;;;;;;;;;;5033667;28;20064;-88
2022/10/14 00:34:11;;;;;;;24.27;14.70;;;;;;;;;;5049156;28;20055;-88
2022/10/14 00:36:39;;;;;;;26.02;14.60;;;;;;;;;;5049309;28;20132;-87
2022/10/14 00:39:07;;;;;;;23.02;14.30;;;;;;;;;;5033509;28;20085;-88
2022/10/14 00:41:35;;;;;;;19.48;14.00;;;;;;;;;;5049085;28;20050;-88
2022/10/14 00:44:02;;;;;;;25.83;14.40;;;;;;;;;;5048816;28;20132;-88
2022/10/14 00:46:30;;;;;;;17.05;12.75;;;;;;;;;;5033770;28;20052;-88
2022/10/14 00:49:00;;;;;;;27.52;15.40;;;;;;;;;;5033407;28;20053;-88
2022/10/14 00:51:28;;;;;;;23.00;14.40;;;;;;;;;;5049125;28;20460;-88
2022/10/14 00:53:55;;;;;;;17.35;13.57;;;;;;;;;;5048779;28;20478;-88
2022/10/14 00:56:24;;;;;;;21.33;14.95;;;;;;;;;;5048864;28;20081;-87
2022/10/14 00:58:52;;;;;;;20.60;13.82;;;;;;;;;;5049054;28;20049;-88
2022/10/14 01:01:19;;;;;;;19.20;13.88;;;;;;;;;;5048874;28;20057;-88
2022/10/14 01:03:46;;;;;;;23.02;14.77;;;;;;;;;;5033365;28;20045;-87
2022/10/14 01:06:13;;;;;;;18.42;13.85;;;;;;;;;;5048591;28;20061;-88
2022/10/14 01:08:52;;;;;;;21.88;13.63;;;;;;;;;;5048542;28;20057;-88
2022/10/14 01:11:28;;;;;;;20.45;14.00;;;;;;;;;;5048812;28;20050;-88
2022/10/14 01:14:02;;;;;;;20.15;15.00;;;;;;;;;;5033278;28;20117;-88
2022/10/14 01:16:35;;;;;;;19.00;13.63;;;;;;;;;;5048617;28;20046;-88
2022/10/14 01:19:17;;;;;;;22.60;13.75;;;;;;;;;;5048565;28;20083;-87
2022/10/14 01:21:47;;;;;;;18.95;13.75;;;;;;;;;;5048699;28;20042;-88
2022/10/14 01:24:20;;;;;;;16.85;13.45;;;;;;;;;;5032988;28;20050;-88
2022/10/14 01:27:06;;;;;;;18.85;13.65;;;;;;;;;;5032965;28;20049;-88
2022/10/14 01:29:46;;;;;;;25.85;14.27;;;;;;;;;;5033026;28;20048;-88
2022/10/14 01:32:16;;;;;;;20.02;12.93;;;;;;;;;;5048653;28;20064;-88
2022/10/14 01:34:52;;;;;;;17.85;13.00;;;;;;;;;;5048613;28;20410;-87
2022/10/14 01:37:21;;;;;;;19.77;13.52;;;;;;;;;;5049929;28;20061;-88
2022/10/14 01:39:52;;;;;;;18.88;13.23;;;;;;;;;;5052277;28;20417;-88
2022/10/14 01:42:21;;;;;;;18.00;13.07;;;;;;;;;;5051857;28;20132;-88
2022/10/14 01:44:58;;;;;;;22.50;13.52;;;;;;;;;;5036852;28;20053;-88
2022/10/14 01:47:27;;;;;;;16.63;11.63;;;;;;;;;;5052460;28;20049;-88
2022/10/14 01:50:01;;;;;;;21.63;13.68;;;;;;;;;;5051978;28;20076;-88
2022/10/14 01:52:29;;;;;;;;;;;;;;;;;;5052459;28;20053;-88
2022/10/14 01:54:59;;;;;;;15.18;12.07;;;;;;;;;;5035500;28;19928;-87
2022/10/14 01:57:28;;;;;;;18.02;12.80;;;;;;;;;;5052106;28;20057;-88
2022/10/14 01:59:56;;;;;;;18.30;13.05;;;;;;;;;;5051754;28;20519;-88
2022/10/14 02:02:24;;;;;;;21.38;13.35;;;;;;;;;;5036250;28;20049;-88
2022/10/14 02:04:51;;;;;;;24.48;14.02;;;;;;;;;;5051736;28;20398;-88
2022/10/14 02:07:22;;;;;;;21.13;13.48;;;;;;;;;;5035973;28;20045;-88
2022/10/14 02:09:57;;;;;;;27.70;13.65;;;;;;;;;;5051648;28;20060;-87
2022/10/14 02:12:34;;;;;;;15.65;12.60;;;;;;;;;;5036424;28;20084;-88
2022/10/14 02:15:04;;;;;;;20.00;13.75;;;;;;;;;;5051425;28;20052;-88
2022/10/14 02:17:35;;;;;;;18.83;13.35;;;;;;;;;;5035953;28;20049;-88
2022/10/14 02:20:05;;;;;;;17.63;14.07;;;;;;;;;;5051498;28;20478;-88
2022/10/14 02:22:35;;;;;;;16.45;13.48;;;;;;;;;;5051469;28;20050;-87
2022/10/14 02:25:07;;;;;;;21.20;14.60;;;;;;;;;;5036093;28;20049;-88
2022/10/14 02:27:35;;;;;;;20.80;14.05;;;;;;;;;;5035803;28;20053;-88
2022/10/14 02:30:03;;;;;;;17.92;14.60;;;;;;;;;;5051272;28;20052;-88
2022/10/14 02:32:32;;;;;;;19.73;13.65;;;;;;;;;;5051413;28;20057;-88
2022/10/14 02:35:00;;;;;;;19.67;14.85;;;;;;;;;;5051266;28;20049;-89
2022/10/14 02:37:29;;;;;;;21.70;13.65;;;;;;;;;;5051341;28;20420;-88
2022/10/14 02:40:11;;;;;;;21.73;15.02;;;;;;;;;;5051164;28;20053;-88
2022/10/14 02:42:38;;;;;;;24.13;15.07;;;;;;;;;;5051205;28;20144;-88
2022/10/14 02:45:05;;;;;;;19.10;13.75;;;;;;;;;;5050835;28;20056;-88
2022/10/14 02:47:33;;;;;;;16.88;14.23;;;;;;;;;;5035456;28;20049;-88
2022/10/14 02:50:00;;;;;;;20.08;15.25;;;;;;;;;;5052020;28;20049;-88
2022/10/14 02:52:27;;;;;;;24.08;16.73;;;;;;;;;;5038688;28;20477;-88
2022/10/14 02:54:54;;;;;;;21.98;15.95;;;;;;;;;;5051028;28;20048;-88
2022/10/14 02:57:21;;;;;;;20.27;15.35;;;;;;;;;;5050681;28;20052;-88
2022/10/14 02:59:48;;;;;;;22.95;16.45;;;;;;;;;;5035525;28;20050;-88
2022/10/14 03:02:16;;;;;;;22.02;15.52;;;;;;;;;;5051635;28;20053;-88
2022/10/14 03:04:43;;;;;;;22.30;16.00;;;;;;;;;;5050495;28;20052;-88
2022/10/14 03:07:10;;;;;;;21.52;15.57;;;;;;;;;;5050529;28;20042;-88
2022/10/14 03:09:37;;;;;;;21.70;15.30;;;;;;;;;;5034953;28;20060;-87
2022/10/14 03:12:04;;;;;;;19.95;15.65;;;;;;;;;;5050767;28;20041;-88
2022/10/14 03:14:31;;;;;;;22.88;15.55;;;;;;;;;;5050635;28;20073;-88
2022/10/14 03:16:59;;;;;;;23.67;16.10;;;;;;;;;;5050543;28;20136;-89
2022/10/14 03:19:26;;;;;;;20.52;15.18;;;;;;;;;;5050388;28;20056;-88
2022/10/14 03:21:53;;;;;;;22.00;17.15;;;;;;;;;;5034748;28;20050;-88
2022/10/14 03:24:20;;;;;;;20.63;16.30;;;;;;;;;;5050157;28;20045;-88
2022/10/14 03:26:47;;;;;;;18.83;14.90;;;;;;;;;;5034858;28;20061;-88
2022/10/14 03:29:14;;;;;;;19.17;15.50;;;;;;;;;;5034493;28;20056;-88
2022/10/14 03:31:41;;;;;;;22.67;15.48;;;;;;;;;;5050205;28;20057;-88
2022/10/14 03:34:08;;;;;;;20.55;15.57;;;;;;;;;;5034572;28;20065;-88
2022/10/14 03:36:36;;;;;;;23.73;16.33;;;;;;;;;;5049950;28;20161;-88
2022/10/14 03:39:03;;;;;;;18.25;14.52;;;;;;;;;;5049873;28;20239;-88
2022/10/14 03:41:30;;;;;;;20.33;14.63;;;;;;;;;;5034533;28;20399;-88
2022/10/14 03:43:58;;;;;;;19.00;15.48;;;;;;;;;;5034346;28;20053;-88
2022/10/14 03:46:25;;;;;;;18.55;13.65;;;;;;;;;;5049556;28;20056;-88
2022/10/14 03:48:52;;;;;;;20.10;14.40;;;;;;;;;;5049824;28;20055;-88
2022/10/14 03:51:19;;;;;;;20.52;15.07;;;;;;;;;;5049806;28;20505;-88
2022/10/14 03:53:46;;;;;;;20.60;14.02;;;;;;;;;;5049705;28;20061;-88
2022/10/14 03:56:13;;;;;;;18.65;14.50;;;;;;;;;;5034015;28;20045;-88
2022/10/14 03:58:41;;;;;;;21.45;15.70;;;;;;;;;;5049607;28;20058;-88
2022/10/14 04:01:08;;;;;;;22.42;15.18;;;;;;;;;;5049305;28;20079;-88
2022/10/14 04:03:35;;;;;;;21.65;16.42;;;;;;;;;;5033966;28;20042;-88
2022/10/14 04:06:02;;;;;;;22.38;15.32;;;;;;;;;;5049420;28;20132;-88
2022/10/14 04:08:29;;;;;;;22.77;15.93;;;;;;;;;;5033877;28;20054;-88
2022/10/14 04:10:57;;;;;;;21.35;16.45;;;;;;;;;;5049576;28;20482;-88
2022/10/14 04:13:24;;;;;;;20.38;15.25;;;;;;;;;;5034083;28;20050;-88
2022/10/14 04:15:51;;;;;;;24.33;16.42;;;;;;;;;;5048358;28;20057;-88
2022/10/14 04:18:18;;;;;;;21.55;15.00;;;;;;;;;;5033887;28;20410;-88
2022/10/14 04:20:46;;;;;;;21.75;15.10;;;;;;;;;;5049550;28;20486;-88
2022/10/14 04:23:13;;;;;;;23.33;15.60;;;;;;;;;;5033854;28;20092;-88
2022/10/14 04:25:40;;;;;;;23.05;15.48;;;;;;;;;;5049327;28;20405;-88
2022/10/14 04:28:08;;;;;;;21.98;15.77;;;;;;;;;;5033882;28;20497;-88
2022/10/14 04:30:35;;;;;;;21.52;16.17;;;;;;;;;;5033662;28;20052;-87
2022/10/14 04:33:02;;;;;;;24.98;15.90;;;;;;;;;;5033528;28;20045;-88
2022/10/14 04:35:29;;;;;;;20.85;16.25;;;;;;;;;;5033770;28;20057;-87
2022/10/14 04:37:56;;;;;;;23.52;15.70;;;;;;;;;;5049224;28;20414;-88
2022/10/14 04:40:25;;;;;;;22.42;16.60;;;;;;;;;;5049057;28;20053;-86
2022/10/14 04:42:55;;;;;;;25.98;16.52;;;;;;;;;;5048880;28;20056;-87
2022/10/14 04:45:24;;;;;;;22.48;17.25;;;;;;;;;;5049047;28;20049;-88
2022/10/14 04:47:51;;;;;;;20.88;16.15;;;;;;;;;;5049363;28;20053;-88
2022/10/14 04:50:19;;;;;;;21.42;15.52;;;;;;;;;;5049221;28;20045;-88
2022/10/14 04:52:46;;;;;;;20.42;16.05;;;;;;;;;;5048988;28;20053;-88
2022/10/14 04:55:13;;;;;;;25.40;16.63;;;;;;;;;;5048903;28;20132;-88
2022/10/14 04:57:42;;;;;;;26.30;19.02;;;;;;;;;;5049303;28;20259;-88
2022/10/14 05:00:11;;;;;;;28.25;19.58;;;;;;;;;;5048800;28;20054;-88
2022/10/14 05:02:38;;;;;;;26.45;18.95;;;;;;;;;;5049151;28;20132;-87
2022/10/14 05:05:06;;;;;;;25.10;18.45;;;;;;;;;;5033433;28;20411;-88
2022/10/14 05:07:33;;;;;;;24.77;18.08;;;;;;;;;;5048772;28;20508;-87
2022/10/14 05:10:00;;;;;;;23.88;17.60;;;;;;;;;;5048605;28;20064;-88
2022/10/14 05:12:28;;;;;;;24.05;17.23;;;;;;;;;;5050686;28;20049;-88
2022/10/14 05:14:55;;;;;;;22.15;16.83;;;;;;;;;;5052866;28;20056;-88
2022/10/14 05:17:22;;;;;;;28.48;17.80;;;;;;;;;;5037432;28;20049;-88
2022/10/14 05:19:49;;;;;;;22.38;17.55;;;;;;;;;;5052879;28;20144;-88
2022/10/14 05:22:16;;;;;;;25.95;16.38;;;;;;;;;;5052559;28;20045;-88
2022/10/14 05:24:43;;;;;;;22.70;16.38;;;;;;;;;;5052651;28;20064;-88
2022/10/14 05:27:11;;;;;;;21.48;16.58;;;;;;;;;;5037047;28;20060;-88
2022/10/14 05:29:38;;;;;;;19.02;15.60;;;;;;;;;;5037290;28;20524;-88
2022/10/14 05:32:05;;;;;;;29.10;17.17;;;;;;;;;;5052427;28;20458;-88
2022/10/14 05:34:33;;;;;;;22.13;16.27;;;;;;;;;;5036921;28;20046;-87
2022/10/14 05:37:01;;;;;;;21.75;16.20;;;;;;;;;;5052126;28;20046;-87
2022/10/14 05:39:28;;;;;;;18.58;15.20;;;;;;;;;;5036585;28;20138;-87
2022/10/14 05:41:56;;;;;;;28.77;17.33;;;;;;;;;;5052038;28;20056;-87
2022/10/14 05:44:23;;;;;;;24.85;17.02;;;;;;;;;;5052077;28;20053;-87
2022/10/14 05:46:50;;;;;;;27.75;16.98;;;;;;;;;;5052203;28;20052;-87
2022/10/14 05:49:17;;;;;;;25.08;15.85;;;;;;;;;;5036483;28;20049;-88
2022/10/14 05:51:44;;;;;;;22.27;16.63;;;;;;;;;;5052076;28;20522;-87
2022/10/14 05:54:11;;;;;;;24.27;17.02;;;;;;;;;;5051566;28;20046;-87
2022/10/14 05:56:38;;;;;;;28.10;16.52;;;;;;;;;;5051739;28;20045;-87
2022/10/14 05:59:06;;;;;;;19.42;15.15;;;;;;;;;;5051618;28;20057;-87
2022/10/14 06:01:35;;;;;;;20.17;15.27;;;;;;;;;;5051936;28;20413;-87
2022/10/14 06:04:02;;;;;;;22.48;15.85;;;;;;;;;;5051716;28;20049;-87
2022/10/14 06:06:29;;;;;;;20.80;15.35;;;;;;;;;;5051846;28;20052;-87
2022/10/14 06:08:56;;;;;;;19.17;14.35;;;;;;;;;;5051343;28;20058;-88
2022/10/14 06:11:23;;;;;;;19.27;14.50;;;;;;;;;;5051561;28;20052;-88
2022/10/14 06:13:51;;;;;;;24.10;16.60;;;;;;;;;;5051512;28;20049;-88
2022/10/14 06:16:19;;;;;;;24.73;16.02;;;;;;;;;;5051665;28;20049;-88
2022/10/14 06:18:46;;;;;;;26.65;15.38;;;;;;;;;;5035785;28;20053;-89
2022/10/14 06:21:20;;;;;;;22.05;15.30;;;;;;;;;;5050561;28;20042;-88
2022/10/14 06:23:47;;;;;;;39.58;16.52;;;;;;;;;;5035765;28;20080;-89
2022/10/14 06:26:14;;;;;;;30.30;16.60;;;;;;;;;;5035976;28;20410;-88
2022/10/14 06:28:41;;;;;;;41.97;17.15;;;;;;;;;;5035834;28;20057;-88
2022/10/14 06:31:09;;;;;;;48.60;17.83;;;;;;;;;;5051424;28;20529;-87
2022/10/14 06:33:36;;;;;;;42.08;18.77;;;;;;;;;;5051079;28;20049;-88
2022/10/14 06:36:04;;;;;;;67.05;19.80;;;;;;;;;;5035633;28;20060;-89
2022/10/14 06:38:32;;;;;;;54.60;25.83;;;;;;;;;;5051111;28;20055;-89
2022/10/14 06:40:59;;;;;;;56.95;35.17;;;;;;;;;;5051247;28;20049;-89
2022/10/14 06:43:27;;;;;;;37.95;20.77;;;;;;;;;;5051317;28;20045;-89
2022/10/14 06:45:56;;;;;;;37.17;17.92;;;;;;;;;;5035549;28;20059;-88
2022/10/14 06:48:23;;;;;;;28.13;16.73;;;;;;;;;;5050896;28;20053;-88
2022/10/14 06:50:50;;;;;;;57.40;18.02;;;;;;;;;;5051132;28;20054;-88
2022/10/14 06:53:18;;;;;;;20.30;15.50;;;;;;;;;;5035593;28;20053;-89
2022/10/14 06:55:45;;;;;;;24.88;17.58;;;;;;;;;;5035450;28;20054;-88
2022/10/14 06:58:12;;;;;;;19.08;13.98;;;;;;;;;;5050732;28;20053;-88
2022/10/14 07:00:39;;;;;;;66.97;44.67;;;;;;;;;;5051039;28;20045;-88
2022/10/14 07:03:11;;;;;;;51.20;32.53;;;;;;;;;;5035601;28;20083;-88
2022/10/14 07:05:38;;;;;;;30.17;23.45;;;;;;;;;;5035752;28;20055;-88
2022/10/14 07:08:05;;;;;;;20.08;15.45;;;;;;;;;;5050519;28;20057;-89
2022/10/14 07:10:36;;;;;;;137.52;107.18;;;;;;;;;;5034891;28;20486;-89
2022/10/14 07:13:03;;;;;;;28.85;22.55;;;;;;;;;;5034905;28;20076;-89
2022/10/14 07:15:30;;;;;;;16.83;12.88;;;;;;;;;;5034842;28;20053;-89
2022/10/14 07:18:03;;;;;;;15.57;12.25;;;;;;;;;;5049842;28;20053;-88
2022/10/14 07:20:30;;;;;;;15.25;9.80;;;;;;;;;;5050408;28;20052;-88
2022/10/14 07:22:57;;;;;;;18.73;10.93;;;;;;;;;;5035121;28;20387;-88
2022/10/14 07:25:25;;;;;;;17.17;11.85;;;;;;;;;;5034730;28;20052;-89
2022/10/14 07:27:52;;;;;;;15.73;12.77;;;;;;;;;;5034665;28;20517;-88
2022/10/14 07:30:20;;;;;;;24.35;16.27;;;;;;;;;;5034586;28;20052;-88
2022/10/14 07:32:47;;;;;;;16.17;13.43;;;;;;;;;;5050219;28;20045;-89
2022/10/14 07:35:15;;;;;;;23.35;14.45;;;;;;;;;;5049430;28;20056;-88
2022/10/14 07:37:42;;;;;;;24.90;14.05;;;;;;;;;;5050071;28;20056;-88
2022/10/14 07:40:10;;;;;;;14.30;10.25;;;;;;;;;;5049954;28;20065;-88
2022/10/14 07:42:37;;;;;;;14.85;9.63;;;;;;;;;;5034514;28;20042;-89
2022/10/14 07:45:05;;;;;;;15.45;9.38;;;;;;;;;;5049718;28;20054;-89
2022/10/14 07:47:32;;;;;;;12.00;8.38;;;;;;;;;;5050002;28;20429;-88
2022/10/14 07:50:01;;;;;;;10.32;7.15;;;;;;;;;;5049704;28;20072;-89
2022/10/14 07:52:28;;;;;;;8.15;4.53;;;;;;;;;;5049996;28;20046;-88
2022/10/14 07:54:55;;;;;;;17.77;6.53;;;;;;;;;;5034040;28;20060;-89
2022/10/14 07:57:22;;;;;;;18.02;7.80;;;;;;;;;;5049679;28;20603;-87
2022/10/14 07:59:51;;;;;;;7.80;3.80;;;;;;;;;;5049544;28;20053;-88
2022/10/14 08:02:18;;;;;;;3.80;2.85;;;;;;;;;;5049591;28;20045;-88
2022/10/14 08:04:46;;;;;;;4.88;2.67;;;;;;;;;;5033955;28;20490;-87
2022/10/14 08:07:13;;;;;;;2.97;2.72;;;;;;;;;;5034261;28;20124;-88
2022/10/14 08:09:40;;;;;;;2.75;2.38;;;;;;;;;;5048837;28;20057;-89
2022/10/14 08:12:08;;;;;;;2.38;2.28;;;;;;;;;;5049493;28;20059;-88
2022/10/14 08:14:35;;;;;;;3.38;2.58;;;;;;;;;;5049299;28;20409;-87
2022/10/14 08:17:02;;;;;;;2.20;2.10;;;;;;;;;;5033759;28;20071;-88
2022/10/14 08:19:29;;;;;;;5.28;2.28;;;;;;;;;;5049218;28;20472;-87
2022/10/14 08:21:57;;;;;;;3.25;2.47;;;;;;;;;;5033556;28;20052;-87
2022/10/14 08:24:24;;;;;;;2.35;2.15;;;;;;;;;;5049051;28;20053;-87
2022/10/14 08:26:53;;;;;;;2.97;2.65;;;;;;;;;;5033638;28;20041;-88
2022/10/14 08:29:24;;;;;;;3.15;2.90;;;;;;;;;;5033733;28;20049;-87
2022/10/14 08:31:52;;;;;;;4.68;2.42;;;;;;;;;;5033682;28;20417;-88
2022/10/14 08:34:20;;;;;;;4.25;2.80;;;;;;;;;;5048961;28;20049;-87
2022/10/14 08:36:47;;;;;;;4.75;3.10;;;;;;;;;;5048775;28;20053;-87
2022/10/14 08:39:17;;;;;;;2.65;2.50;;;;;;;;;;5048935;28;20064;-88
2022/10/14 08:42:03;;;;;;;4.05;2.42;;;;;;;;;;5048854;28;20045;-87
2022/10/14 08:44:50;;;;;;;2.85;2.65;;;;;;;;;;5049049;28;20160;-88
2022/10/14 08:47:20;;;;;;;3.47;2.65;;;;;;;;;;5033316;28;20049;-88
2022/10/14 08:49:53;;;;;;;3.25;3.05;;;;;;;;;;5049014;28;20057;-89
2022/10/14 08:52:39;;;;;;;3.38;2.95;;;;;;;;;;5049197;28;20053;-88
2022/10/14 08:55:29;;;;;;;3.72;3.42;;;;;;;;;;5048926;28;20057;-88
2022/10/14 08:58:02;;;;;;;2.65;2.53;;;;;;;;;;5025107;28;20045;-88
2022/10/14 09:00:35;;;;;;;2.60;2.40;;;;;;;;;;5048333;28;20053;-91
2022/10/14 09:03:09;;;;;;;2.55;2.35;;;;;;;;;;5048970;28;20060;-91
2022/10/14 09:05:38;;;;;;;2.67;2.47;;;;;;;;;;5048841;28;20050;-90
2022/10/14 09:08:07;;;;;;;3.00;2.70;;;;;;;;;;5048818;28;20438;-87
2022/10/14 09:10:35;;;;;;;4.07;2.75;;;;;;;;;;5048876;28;20061;-88
2022/10/14 09:13:08;;;;;;;3.47;3.08;;;;;;;;;;5049368;28;20386;-90
2022/10/14 09:15:40;;;;;;;3.03;2.83;;;;;;;;;;5048909;28;20064;-87
2022/10/14 09:18:21;;;;;;;2.75;2.53;;;;;;;;;;5032975;28;20049;-88
2022/10/14 09:20:48;;;;;;;3.05;2.60;;;;;;;;;;5033517;28;20061;-91
2022/10/14 09:23:19;;;;;;;2.42;2.15;;;;;;;;;;5048703;28;20057;-88
2022/10/14 09:25:58;;;;;;;4.45;2.25;;;;;;;;;;5048759;28;20060;-87
2022/10/14 09:28:31;;;;;;;2.78;2.58;;;;;;;;;;5048392;28;20050;-88
2022/10/14 09:30:58;;;;;;;;;;;;;;;;;;5049303;28;20045;-88
2022/10/14 09:33:26;;;;;;;2.85;2.45;;;;;;;;;;5032280;28;19921;-89
2022/10/14 09:35:53;;;;;;;2.25;1.80;;;;;;;;;;5033039;28;20444;-87
2022/10/14 09:38:21;;;;;;;3.90;2.22;;;;;;;;;;5048431;28;20060;-88
2022/10/14 09:40:50;;;;;;;2.70;2.50;;;;;;;;;;5048564;28;20049;-87
2022/10/14 09:43:18;;;;;;;4.13;2.10;;;;;;;;;;5048648;28;20053;-88
2022/10/14 09:45:50;;;;;;;3.60;2.35;;;;;;;;;;5048323;28;20099;-89
2022/10/14 09:48:20;;;;;;;5.40;2.30;;;;;;;;;;5033077;28;20049;-88
2022/10/14 09:50:52;;;;;;;5.40;2.20;;;;;;;;;;5048384;28;20060;-88
2022/10/14 09:53:23;;;;;;;5.65;2.30;;;;;;;;;;5032757;28;20406;-87
2022/10/14 09:55:53;;;;;;;2.05;1.95;;;;;;;;;;5032702;28;20149;-88
2022/10/14 09:58:35;;;;;;;4.82;2.03;;;;;;;;;;5034236;28;20045;-87
2022/10/14 10:01:02;;;;;;;3.05;2.13;;;;;;;;;;5036654;28;20413;-88
2022/10/14 10:03:31;;;;;;;5.60;2.00;;;;;;;;;;5051879;28;20049;-89
2022/10/14 10:06:03;;;;;;;2.47;2.28;;;;;;;;;;5036236;28;20049;-88
2022/10/14 10:08:31;;;;;;;5.78;2.28;;;;;;;;;;5051855;28;20399;-88
2022/10/14 10:11:01;;;;;;;3.95;2.20;;;;;;;;;;5036637;28;20057;-88
2022/10/14 10:13:34;;;;;;;2.40;2.20;;;;;;;;;;5036163;28;20482;-88
2022/10/14 10:16:03;;;;;;;3.22;2.10;;;;;;;;;;5034764;28;20060;-88
2022/10/14 10:18:30;;;;;;;2.30;2.10;;;;;;;;;;5036058;28;20062;-88
2022/10/14 10:21:05;;;;;;;3.60;2.50;;;;;;;;;;5051793;28;20053;-89
2022/10/14 10:23:36;;;;;;;2.42;2.25;;;;;;;;;;5051800;28;20556;-90
2022/10/14 10:26:16;;;;;;;3.50;2.45;;;;;;;;;;5051703;28;20042;-89
2022/10/14 10:28:45;;;;;;;2.30;2.05;;;;;;;;;;5051622;28;20049;-88
2022/10/14 10:31:12;;;;;;;6.35;2.60;;;;;;;;;;5051144;28;20088;-89
2022/10/14 10:33:45;;;;;;;4.97;2.30;;;;;;;;;;5051182;28;20056;-89
2022/10/14 10:36:16;;;;;;;3.28;2.60;;;;;;;;;;5035913;28;20407;-88
2022/10/14 10:39:11;;;;;;;4.07;2.38;;;;;;;;;;5051079;28;20046;-88
2022/10/14 10:41:47;;;;;;;5.15;2.50;;;;;;;;;;5051490;28;20057;-88
2022/10/14 10:44:24;;;;;;;2.60;2.40;;;;;;;;;;5035885;28;20089;-89
2022/10/14 10:47:04;;;;;;;3.28;2.10;;;;;;;;;;5051266;28;20056;-88
2022/10/14 10:49:58;;;;;;;4.13;2.80;;;;;;;;;;5050946;28;20053;-92
2022/10/14 10:52:29;;;;;;;5.97;2.65;;;;;;;;;;5013675;28;20050;-89
2022/10/14 10:55:02;;;;;;;4.75;2.60;;;;;;;;;;5051797;28;20080;-88
2022/10/14 10:57:48;;;;;;;5.88;2.63;;;;;;;;;;5035678;28;20413;-87
2022/10/14 11:00:19;;;;;;;5.63;3.22;;;;;;;;;;5050993;28;20049;-87
2022/10/14 11:02:47;;;;;;;3.92;2.55;;;;;;;;;;5050991;28;20049;-89
2022/10/14 11:05:22;;;;;;;7.88;2.60;;;;;;;;;;5050874;28;20049;-88
2022/10/14 11:13:33;;;;;;;4.30;2.42;;;;;;;;;;5035392;28;20075;-89
2022/10/14 11:16:09;;;;;;;3.70;2.88;;;;;;;;;;5050661;28;20102;-88
2022/10/14 11:18:45;;;;;;;6.97;2.97;;;;;;;;;;5035345;28;20060;-90
2022/10/14 11:21:39;;;;;;;2.97;2.47;;;;;;;;;;5050558;28;20132;-88
2022/10/14 11:24:13;;;;;;;3.60;2.03;;;;;;;;;;5050473;28;20053;-88
2022/10/14 11:26:40;;;;;;;11.63;2.90;;;;;;;;;;5050440;28;20050;-89
2022/10/14 11:29:27;;;;;;;5.43;2.17;;;;;;;;;;5050153;28;20183;-88
2022/10/14 11:32:02;;;;;;;2.83;2.13;;;;;;;;;;5033714;28;20410;-87
2022/10/14 11:34:38;;;;;;;2.53;2.22;;;;;;;;;;5050641;28;20045;-91
2022/10/14 11:37:05;;;;;;;4.20;2.50;;;;;;;;;;5034827;28;20167;-89
2022/10/14 11:39:45;;;;;;;4.63;2.42;;;;;;;;;;5050895;28;20104;-88
2022/10/14 11:42:25;;;;;;;2.40;2.20;;;;;;;;;;5050304;28;20493;-87
2022/10/14 11:45:18;;;;;;;3.85;2.58;;;;;;;;;;5049625;28;20053;-88
2022/10/14 11:47:48;;;;;;;2.50;2.28;;;;;;;;;;5012408;28;20045;-89
2022/10/14 11:50:15;;;;;;;3.10;2.25;;;;;;;;;;5049920;28;20072;-88
2022/10/14 11:52:48;;;;;;;3.65;2.53;;;;;;;;;;5049979;28;20055;-88
2022/10/14 11:55:18;;;;;;;3.05;2.30;;;;;;;;;;5049286;28;20051;-90
2022/10/14 11:57:49;;;;;;;3.03;2.08;;;;;;;;;;5034529;28;20049;-87
2022/10/14 12:00:35;;;;;;;3.47;2.40;;;;;;;;;;5049308;28;20432;-88
2022/10/14 12:03:21;;;;;;;3.92;2.28;;;;;;;;;;5033656;28;20063;-88
2022/10/14 12:05:54;;;;;;;4.97;2.65;;;;;;;;;;5049612;28;20052;-87
2022/10/14 12:08:29;;;;;;;3.58;2.22;;;;;;;;;;5034414;28;20050;-88
2022/10/14 12:11:01;;;;;;;5.97;2.45;;;;;;;;;;5049148;28;20064;-88
2022/10/14 12:14:01;;;;;;;7.60;2.67;;;;;;;;;;5049521;28;20042;-89
2022/10/14 12:16:28;;;;;;;5.28;2.42;;;;;;;;;;5001265;28;20048;-87
2022/10/14 12:18:56;;;;;;;3.30;2.42;;;;;;;;;;5049554;28;20493;-90
2022/10/14 12:21:27;;;;;;;5.28;2.40;;;;;;;;;;5033847;28;20061;-86
2022/10/14 12:23:57;;;;;;;5.82;2.30;;;;;;;;;;5033731;28;20145;-89
2022/10/14 12:26:24;;;;;;;3.85;1.90;;;;;;;;;;5049352;28;20056;-88
2022/10/14 12:28:52;;;;;;;4.20;2.60;;;;;;;;;;5049331;28;20061;-89
2022/10/14 12:31:35;;;;;;;2.72;2.20;;;;;;;;;;5033577;28;20481;-90
2022/10/14 12:34:12;;;;;;;5.18;1.88;;;;;;;;;;5034074;28;20053;-89
2022/10/14 12:36:40;;;;;;;3.72;2.25;;;;;;;;;;5033629;28;20046;-87
2022/10/14 12:39:16;;;;;;;2.70;1.73;;;;;;;;;;5049177;28;20057;-87
2022/10/14 12:41:55;;;;;;;2.70;1.90;;;;;;;;;;5049200;28;20505;-87
2022/10/14 12:44:23;;;;;;;3.65;1.75;;;;;;;;;;5048896;28;20092;-88
2022/10/14 12:46:52;;;;;;;7.90;2.25;;;;;;;;;;5033862;28;20057;-88
2022/10/14 12:49:30;;;;;;;4.68;2.10;;;;;;;;;;5049313;28;20406;-88
2022/10/14 12:52:08;;;;;;;4.97;2.08;;;;;;;;;;5049446;28;20064;-89
2022/10/14 12:54:36;;;;;;;3.97;1.85;;;;;;;;;;5033530;28;20050;-89
2022/10/14 12:57:03;;;;;;;4.65;2.08;;;;;;;;;;5048823;28;20112;-88
2022/10/14 12:59:33;;;;;;;1.98;1.85;;;;;;;;;;5049246;28;20076;-89
2022/10/14 13:02:03;;;;;;;3.65;2.03;;;;;;;;;;5048954;28;20041;-88
2022/10/14 13:04:31;;;;;;;3.20;1.90;;;;;;;;;;5048996;28;20053;-89
2022/10/14 13:07:28;;;;;;;4.25;1.95;;;;;;;;;;5033310;28;20046;-89
2022/10/14 13:10:30;;;;;;;3.97;2.13;;;;;;;;;;5046377;28;20052;-89
2022/10/14 13:12:59;;;;;;;7.40;2.03;;;;;;;;;;5033068;28;20049;-88
2022/10/14 13:15:35;;;;;;;4.90;1.73;;;;;;;;;;5048514;28;20045;-88
2022/10/14 13:18:23;;;;;;;1.98;1.77;;;;;;;;;;5049398;28;20041;-88
2022/10/14 13:20:51;;;;;;;2.80;1.98;;;;;;;;;;5048657;28;20042;-88
2022/10/14 13:23:31;;;;;;;5.85;2.00;;;;;;;;;;5048948;28;20056;-88
2022/10/14 13:26:06;;;;;;;4.78;2.28;;;;;;;;;;5048738;28;20052;-88
2022/10/14 13:28:46;;;;;;;8.32;2.13;;;;;;;;;;5033209;28;20052;-88
2022/10/14 13:31:39;;;;;;;1.98;1.73;;;;;;;;;;5048692;28;20421;-87
2022/10/14 13:34:20;;;;;;;3.40;1.85;;;;;;;;;;5032092;28;20045;-88
2022/10/14 13:36:56;;;;;;;5.60;2.08;;;;;;;;;;5037038;28;20056;-87
2022/10/14 13:39:24;;;;;;;3.38;1.90;;;;;;;;;;5052457;28;20128;-87
2022/10/14 13:41:51;;;;;;;3.25;2.15;;;;;;;;;;5036902;28;20050;-88
2022/10/14 13:44:21;;;;;;;2.90;2.08;;;;;;;;;;5052389;28;20409;-87
2022/10/14 13:46:49;;;;;;;3.38;1.65;;;;;;;;;;5036641;28;20049;-87
2022/10/14 13:49:21;;;;;;;6.50;2.03;;;;;;;;;;5036462;28;20066;-87
2022/10/14 13:51:52;;;;;;;8.75;2.25;;;;;;;;;;5052028;28;20062;-87
2022/10/14 13:54:27;;;;;;;4.85;1.80;;;;;;;;;;5052066;28;20057;-89
2022/10/14 13:56:57;;;;;;;3.03;2.15;;;;;;;;;;5036443;28;20053;-87
2022/10/14 13:59:45;;;;;;;2.90;1.92;;;;;;;;;;5049559;28;20049;-87
2022/10/14 14:02:33;;;;;;;3.65;2.28;;;;;;;;;;5036266;28;20504;-88
2022/10/14 14:05:00;;;;;;;4.53;2.45;;;;;;;;;;5036219;28;20128;-90
2022/10/14 14:07:31;;;;;;;7.65;2.35;;;;;;;;;;5052524;28;20489;-90
2022/10/14 14:10:20;;;;;;;2.72;2.20;;;;;;;;;;5036234;28;20119;-88
2022/10/14 14:12:47;;;;;;;2.80;2.25;;;;;;;;;;5052140;28;20490;-87
2022/10/14 14:15:32;;;;;;;6.10;2.10;;;;;;;;;;5036342;28;20482;-87
2022/10/14 14:17:59;;;;;;;4.70;2.15;;;;;;;;;;5051692;28;20045;-88
2022/10/14 14:20:28;;;;;;;4.57;2.20;;;;;;;;;;5051707;28;20050;-88
2022/10/14 14:22:57;;;;;;;3.40;2.38;;;;;;;;;;5051567;28;20056;-88
2022/10/14 14:25:26;;;;;;;2.35;2.15;;;;;;;;;;5051556;28;20487;-88
2022/10/14 14:28:06;;;;;;;3.58;2.78;;;;;;;;;;5050619;28;20446;-91
2022/10/14 14:30:35;;;;;;;5.80;3.00;;;;;;;;;;5051388;28;20057;-88
2022/10/14 14:33:13;;;;;;;3.83;2.50;;;;;;;;;;5051404;28;20065;-87
2022/10/14 14:35:41;;;;;;;3.33;2.60;;;;;;;;;;5036145;28;20049;-88
2022/10/14 14:38:29;;;;;;;4.88;2.63;;;;;;;;;;5051291;28;20108;-87
2022/10/14 14:41:21;;;;;;;10.80;2.78;;;;;;;;;;5035532;28;20049;-88
2022/10/14 14:43:50;;;;;;;5.25;2.63;;;;;;;;;;5028146;28;20504;-89
2022/10/14 14:46:39;;;;;;;5.53;2.90;;;;;;;;;;5048436;28;20509;-90
2022/10/14 14:49:07;;;;;;;4.63;2.78;;;;;;;;;;5035457;28;20740;-88
2022/10/14 14:51:38;;;;;;;4.05;2.42;;;;;;;;;;5035708;28;20053;-88
2022/10/14 14:54:06;;;;;;;5.00;2.50;;;;;;;;;;5051240;28;20060;-90
2022/10/14 14:56:43;;;;;;;6.03;3.30;;;;;;;;;;5050833;28;20073;-88